createdAt,value
2018-04-27T00:01:54.519Z,76.60
2018-04-27T00:04:22.147Z,76.62
2018-04-27T00:06:49.788Z,76.54
2018-04-27T00:18:26.556Z,76.74
2018-04-27T00:20:54.074Z,76.88
2018-04-27T00:23:21.635Z,76.94
2018-04-27T00:34:56.428Z,77.32
2018-04-27T00:37:24.962Z,77.40
2018-04-27T00:39:52.534Z,77.49
2018-04-27T00:51:01.810Z,77.76
2018-04-27T00:53:29.387Z,77.89
2018-04-27T00:55:56.922Z,77.97
2018-04-27T00:58:24.539Z,78.05
2018-04-27T01:01:03.808Z,78.08
2018-04-27T01:06:15.166Z,78.22
2018-04-27T01:08:42.799Z,78.30
2018-04-27T01:11:10.357Z,78.40
2018-04-27T01:13:37.913Z,78.45
2018-04-27T01:16:05.656Z,78.54
2018-04-27T01:18:34.189Z,78.66
2018-04-27T01:21:04.195Z,78.72
2018-04-27T01:23:31.757Z,78.75
2018-04-27T01:25:59.254Z,78.84
2018-04-27T01:28:27.425Z,78.93
2018-04-27T01:30:55.001Z,79.00
2018-04-27T01:33:22.681Z,79.02
2018-04-27T01:35:55.180Z,79.03
2018-04-27T01:38:23.844Z,79.01
2018-04-27T01:40:54.428Z,79.03
2018-04-27T01:43:21.998Z,79.01
2018-04-27T01:45:49.532Z,79.03
2018-04-27T01:48:17.161Z,79.11
2018-04-27T01:50:44.762Z,79.16
2018-04-27T01:53:14.966Z,79.16
2018-04-27T01:55:46.354Z,79.19
2018-04-27T01:58:15.194Z,79.22
2018-04-27T02:00:42.743Z,79.28
2018-04-27T02:03:10.263Z,79.28
2018-04-27T02:05:38.053Z,79.31
2018-04-27T02:08:06.587Z,79.35
2018-04-27T02:10:39.027Z,79.35
2018-04-27T02:13:10.403Z,79.43
2018-04-27T02:18:30.592Z,79.49
2018-04-27T02:20:58.145Z,79.60
2018-04-27T02:23:25.741Z,79.68
2018-04-27T02:34:42.766Z,79.94
2018-04-27T02:37:10.351Z,80.02
2018-04-27T02:39:38.060Z,80.08
2018-04-27T02:51:12.436Z,80.22
2018-04-27T02:53:40.028Z,80.27
2018-04-27T02:56:07.557Z,80.34
2018-04-27T02:58:37.116Z,80.41
2018-04-27T03:09:41.961Z,80.58
2018-04-27T03:12:09.525Z,80.61
2018-04-27T03:14:37.133Z,80.71
2018-04-27T03:26:13.761Z,80.93
2018-04-27T03:28:41.418Z,81.05
2018-04-27T03:31:09.086Z,81.17
2018-04-27T03:42:45.583Z,81.45
2018-04-27T03:45:13.141Z,81.53
2018-04-27T03:47:40.711Z,81.59
2018-04-27T03:59:28.573Z,81.82
2018-04-27T04:02:07.905Z,81.83
2018-04-27T04:04:47.559Z,81.95
2018-04-27T04:07:28.844Z,82.05
2018-04-27T04:19:01.515Z,82.36
2018-04-27T04:21:29.093Z,82.35
2018-04-27T04:23:56.669Z,82.41
2018-04-27T04:35:33.495Z,82.59
2018-04-27T04:38:01.081Z,82.64
2018-04-27T04:40:28.699Z,82.68
2018-04-27T04:52:05.142Z,82.89
2018-04-27T04:54:32.709Z,82.91
2018-04-27T04:57:01.312Z,82.92
2018-04-27T05:08:37.847Z,83.00
2018-04-27T05:11:05.463Z,83.06
2018-04-27T05:13:33.069Z,83.14
2018-04-27T05:25:09.153Z,83.33
2018-04-27T05:27:36.865Z,83.43
2018-04-27T05:30:04.496Z,83.49
2018-04-27T05:41:56.406Z,83.64
2018-04-27T05:44:24.011Z,83.65
2018-04-27T05:46:51.605Z,83.67
2018-04-27T05:49:19.307Z,83.69
2018-04-27T06:00:56.390Z,83.83
2018-04-27T06:03:24.095Z,83.83
2018-04-27T06:05:51.695Z,83.83
2018-04-27T06:17:28.183Z,83.95
2018-04-27T06:19:55.724Z,83.95
2018-04-27T06:22:23.393Z,83.97
2018-04-27T06:33:59.827Z,84.12
2018-04-27T06:36:31.489Z,84.15
2018-04-27T06:38:59.110Z,84.15
2018-04-27T06:50:35.243Z,84.26
2018-04-27T06:53:02.823Z,84.27
2018-04-27T06:55:30.456Z,84.31
2018-04-27T07:00:58.965Z,84.35
2018-04-27T07:09:33.080Z,84.32
2018-04-27T07:12:00.786Z,84.34
2018-04-27T07:14:28.405Z,84.34
2018-04-27T07:26:05.547Z,84.29
2018-04-27T07:28:33.095Z,84.27
2018-04-27T07:31:00.667Z,84.26
2018-04-27T07:42:36.571Z,84.14
2018-04-27T07:45:04.254Z,84.10
2018-04-27T07:47:31.827Z,84.07
2018-04-27T07:59:07.721Z,84.00
2018-04-27T08:01:35.309Z,84.02
2018-04-27T08:04:02.940Z,84.03
2018-04-27T08:15:36.741Z,83.97
2018-04-27T08:18:04.350Z,84.00
2018-04-27T08:20:31.923Z,84.01
2018-04-27T08:23:00.367Z,84.01
2018-04-27T08:28:21.052Z,84.06
2018-04-27T08:33:39.147Z,84.07
2018-04-27T08:36:06.771Z,84.05
2018-04-27T08:38:34.373Z,84.06
2018-04-27T08:50:08.647Z,84.03
2018-04-27T08:52:36.259Z,84.02
2018-04-27T08:55:03.953Z,84.01
2018-04-27T08:57:31.604Z,83.98
2018-04-27T09:09:34.947Z,83.94
2018-04-27T09:12:02.619Z,83.96
2018-04-27T09:14:30.258Z,83.93
2018-04-27T09:17:03.939Z,83.90
2018-04-27T09:22:36.155Z,83.73
2018-04-27T09:25:03.880Z,83.74
2018-04-27T09:27:31.503Z,83.68
2018-04-27T09:29:59.107Z,83.65
2018-04-27T09:32:28.497Z,83.66
2018-04-27T09:41:24.323Z,83.77
2018-04-27T09:43:51.899Z,83.76
2018-04-27T09:46:19.521Z,83.74
2018-04-27T09:48:47.341Z,83.65
2018-04-27T09:57:27.794Z,83.56
2018-04-27T09:59:55.505Z,83.50
2018-04-27T10:04:55.705Z,83.54
2018-04-27T10:07:31.477Z,83.54
2018-04-27T10:10:02.758Z,83.46
2018-04-27T10:15:37.028Z,83.30
2018-04-27T10:18:04.579Z,83.30
2018-04-27T10:20:32.260Z,83.36
2018-04-27T10:22:59.832Z,83.44
2018-04-27T10:34:51.931Z,83.60
2018-04-27T10:37:19.623Z,83.63
2018-04-27T10:39:47.314Z,83.60
2018-04-27T10:42:24.129Z,83.67
2018-04-27T10:44:54.546Z,83.69
2018-04-27T10:47:24.650Z,83.89
2018-04-27T10:49:53.325Z,83.90
2018-04-27T10:52:20.924Z,84.10
2018-04-27T10:54:48.493Z,84.21
2018-04-27T10:57:16.079Z,84.38
2018-04-27T10:59:47.273Z,84.52
2018-04-27T11:05:00.402Z,84.82
2018-04-27T11:07:28.114Z,84.96
2018-04-27T11:09:55.697Z,85.06
2018-04-27T11:12:23.358Z,85.15
2018-04-27T11:14:50.919Z,85.29
2018-04-27T11:26:27.676Z,85.63
2018-04-27T11:28:55.226Z,85.69
2018-04-27T11:31:22.909Z,85.64
2018-04-27T11:43:08.925Z,85.40
2018-04-27T11:45:36.497Z,85.20
2018-04-27T11:48:04.062Z,84.85
2018-04-27T11:59:35.607Z,83.67
2018-04-27T12:02:03.187Z,83.33
2018-04-27T12:04:30.910Z,82.97
2018-04-27T12:16:07.052Z,79.97
2018-04-27T12:18:34.614Z,78.97
2018-04-27T12:21:03.059Z,78.09
2018-04-27T12:23:32.418Z,77.56
2018-04-27T12:35:02.173Z,76.20
2018-04-27T12:37:29.736Z,76.05
2018-04-27T12:39:58.247Z,76.03
2018-04-27T12:50:17.712Z,74.55
2018-04-27T12:52:45.431Z,74.54
2018-04-27T12:55:13.123Z,74.46
2018-04-27T12:57:40.855Z,74.23
2018-04-27T13:00:14.623Z,74.17
2018-04-27T13:02:46.425Z,74.05
2018-04-27T13:07:53.376Z,73.06
2018-04-27T13:10:20.931Z,72.84
2018-04-27T13:12:48.543Z,73.26
2018-04-27T13:15:16.223Z,73.83
2018-04-27T13:17:48.059Z,74.02
2018-04-27T13:20:16.527Z,74.08
2018-04-27T13:22:44.616Z,74.50
2018-04-27T13:25:12.231Z,74.68
2018-04-27T13:27:41.787Z,75.17
2018-04-27T13:30:09.402Z,75.32
2018-04-27T13:32:36.969Z,75.69
2018-04-27T13:35:04.659Z,75.76
2018-04-27T13:40:26.689Z,76.49
2018-04-27T13:42:54.279Z,76.36
2018-04-27T13:45:21.781Z,76.43
2018-04-27T13:47:49.371Z,76.32
2018-04-27T13:50:16.936Z,76.35
2018-04-27T14:03:49.509Z,76.38
2018-04-27T14:06:17.168Z,76.54
2018-04-27T14:16:58.991Z,76.67
2018-04-27T14:19:26.628Z,76.67
2018-04-27T14:21:54.283Z,76.62
2018-04-27T14:24:22.236Z,76.66
2018-04-27T14:32:25.032Z,76.68
2018-04-27T14:34:52.660Z,76.76
2018-04-27T14:37:20.351Z,76.76
2018-04-27T14:39:48.015Z,76.82
2018-04-27T14:42:16.279Z,77.05
2018-04-27T14:44:45.225Z,76.90
2018-04-27T14:49:50.816Z,76.76
2018-04-27T14:52:18.476Z,76.36
2018-04-27T14:54:46.075Z,76.18
2018-04-27T14:57:13.689Z,75.79
2018-04-27T14:59:43.591Z,75.26
2018-04-27T15:02:14.843Z,75.05
2018-04-27T15:04:46.612Z,74.49
2018-04-27T15:07:16.351Z,74.42
2018-04-27T15:09:43.928Z,74.21
2018-04-27T15:12:11.560Z,74.36
2018-04-27T15:14:39.128Z,74.41
2018-04-27T15:17:08.741Z,74.08
2018-04-27T15:19:43.731Z,73.90
2018-04-27T15:22:12.274Z,73.63
2018-04-27T15:24:39.848Z,73.25
2018-04-27T15:27:07.387Z,72.64
2018-04-27T15:29:34.943Z,72.38
2018-04-27T15:32:02.554Z,71.99
2018-04-27T15:34:31.129Z,71.45
2018-04-27T15:37:00.906Z,71.67
2018-04-27T15:39:28.787Z,71.81
2018-04-27T15:42:00.740Z,72.01
2018-04-27T15:44:28.350Z,71.87
2018-04-27T15:46:55.963Z,71.98
2018-04-27T15:49:23.615Z,72.19
2018-04-27T15:51:52.274Z,71.86
2018-04-27T15:54:20.285Z,71.86
2018-04-27T15:56:52.744Z,72.04
2018-04-27T15:59:22.032Z,72.18
2018-04-27T16:01:49.659Z,72.30
2018-04-27T16:04:17.221Z,72.44
2018-04-27T16:06:44.964Z,72.63
2018-04-27T16:09:14.731Z,72.78
2018-04-27T16:11:43.633Z,73.01
2018-04-27T16:14:12.165Z,73.31
2018-04-27T16:16:39.695Z,73.25
2018-04-27T16:19:07.327Z,73.39
2018-04-27T16:21:34.938Z,73.53
2018-04-27T16:24:02.593Z,73.70
2018-04-27T16:26:35.237Z,73.85
2018-04-27T16:29:03.779Z,74.20
2018-04-27T16:31:32.398Z,74.50
2018-04-27T16:34:00.803Z,74.67
2018-04-27T16:36:28.377Z,74.97
2018-04-27T16:38:55.918Z,74.93
2018-04-27T16:41:23.458Z,75.25
2018-04-27T16:43:51.291Z,75.97
2018-04-27T16:46:28.190Z,75.73
2018-04-27T16:49:04.338Z,75.85
2018-04-27T16:51:31.983Z,75.90
2018-04-27T16:53:59.611Z,76.29
2018-04-27T16:56:27.146Z,76.09
2018-04-27T16:58:54.755Z,75.92
2018-04-27T17:01:28.793Z,75.98
2018-04-27T17:09:10.725Z,76.20
2018-04-27T17:11:38.273Z,76.11
2018-04-27T17:14:05.851Z,76.31
2018-04-27T17:16:33.576Z,76.33
2018-04-27T17:19:02.970Z,76.38
2018-04-27T17:21:31.611Z,76.44
2018-04-27T17:24:00.306Z,76.50
2018-04-27T17:26:27.893Z,76.47
2018-04-27T17:28:55.385Z,76.46
2018-04-27T17:31:23.092Z,76.74
2018-04-27T17:42:36.515Z,76.72
2018-04-27T17:45:04.885Z,76.73
2018-04-27T17:47:32.552Z,76.77
2018-04-27T17:50:00.223Z,76.84
2018-04-27T18:00:52.269Z,76.82
2018-04-27T18:03:19.901Z,76.84
2018-04-27T18:05:47.461Z,76.93
2018-04-27T18:08:19.609Z,76.91
2018-04-27T18:10:50.859Z,76.82
2018-04-27T18:13:20.050Z,76.75
2018-04-27T18:19:23.707Z,76.64
2018-04-27T18:21:51.360Z,76.60
2018-04-27T18:24:21.340Z,76.56
2018-04-27T18:29:28.146Z,76.68
2018-04-27T18:32:06.601Z,76.76
2018-04-27T18:34:34.267Z,76.81
2018-04-27T18:37:01.827Z,76.88
2018-04-27T18:39:29.413Z,76.97
2018-04-27T18:41:58.091Z,77.02
2018-04-27T18:52:55.322Z,77.30
2018-04-27T18:55:22.963Z,77.37
2018-04-27T18:57:50.560Z,77.44
2018-04-27T19:03:16.330Z,77.70
2018-04-27T19:05:44.812Z,77.75
2018-04-27T19:08:12.420Z,77.76
2018-04-27T19:10:40.004Z,77.77
2018-04-27T19:13:07.671Z,77.81
2018-04-27T19:15:36.378Z,77.86
2018-04-27T19:20:59.611Z,77.94
2018-04-27T19:23:31.779Z,77.98
2018-04-27T19:25:59.376Z,78.00
2018-04-27T19:28:31.023Z,77.98
2018-04-27T19:30:59.424Z,77.96
2018-04-27T19:33:27.019Z,77.96
2018-04-27T19:35:57.102Z,77.99
2018-04-27T19:38:27.891Z,77.90
2018-04-27T19:40:56.443Z,77.96
2018-04-27T19:43:24.992Z,77.92
2018-04-27T19:45:52.745Z,77.90
2018-04-27T19:48:20.387Z,77.94
2018-04-27T19:50:48.181Z,77.96
2018-04-27T19:53:19.783Z,78.00
2018-04-27T19:55:50.709Z,78.00
2018-04-27T19:58:23.873Z,78.03
2018-04-27T20:00:51.492Z,78.04
2018-04-27T20:03:19.759Z,78.09
2018-04-27T20:05:48.081Z,78.11
2018-04-27T20:08:16.016Z,78.13
2018-04-27T20:10:46.672Z,78.13
2018-04-27T20:15:59.749Z,78.23
2018-04-27T20:18:28.250Z,78.26
2018-04-27T20:20:55.804Z,78.33
2018-04-27T20:23:23.400Z,78.33
2018-04-27T20:25:59.832Z,78.44
2018-04-27T20:28:31.677Z,78.39
2018-04-27T20:31:00.444Z,78.40
2018-04-27T20:33:32.744Z,78.41
2018-04-27T20:36:01.085Z,78.36
2018-04-27T20:38:30.554Z,78.29
2018-04-27T20:40:58.140Z,78.25
2018-04-27T20:43:27.377Z,78.21
2018-04-27T20:45:56.730Z,78.19
2018-04-27T20:48:26.952Z,78.15
2018-04-27T20:53:51.548Z,78.12
2018-04-27T20:56:20.550Z,78.11
2018-04-27T20:58:48.111Z,78.11
2018-04-27T21:01:15.779Z,78.07
2018-04-27T21:03:45.397Z,78.07
2018-04-27T21:06:14.896Z,78.08
2018-04-27T21:08:42.432Z,78.09
2018-04-27T21:11:10.023Z,78.07
2018-04-27T21:13:37.578Z,78.06
2018-04-27T21:16:06.135Z,78.06
2018-04-27T21:18:35.463Z,78.07
2018-04-27T21:21:07.809Z,78.06
2018-04-27T21:23:36.603Z,78.09
2018-04-27T21:26:04.180Z,78.12
2018-04-27T21:28:33.439Z,78.16
2018-04-27T21:31:00.988Z,78.16
2018-04-27T21:33:38.165Z,78.21
2018-04-27T21:36:07.034Z,78.27
2018-04-27T21:38:56.695Z,78.37
2018-04-27T21:47:24.351Z,78.62
2018-04-27T21:49:52.008Z,78.65
2018-04-27T21:55:08.103Z,78.72
2018-04-27T21:57:48.870Z,78.77
2018-04-27T22:00:16.592Z,78.80
2018-04-27T22:02:50.052Z,78.82
2018-04-27T22:08:33.332Z,78.82
2018-04-27T22:11:02.779Z,78.84
2018-04-27T22:13:35.466Z,78.83
2018-04-27T22:16:07.013Z,78.85
2018-04-27T22:18:34.602Z,78.92
2018-04-27T22:21:02.152Z,78.96
2018-04-27T22:23:30.358Z,78.99
2018-04-27T22:25:58.851Z,79.02
2018-04-27T22:28:35.354Z,79.05
2018-04-27T22:31:08.129Z,79.13
2018-04-27T22:39:17.527Z,79.25
2018-04-27T22:45:03.205Z,79.32
2018-04-27T22:50:34.667Z,79.35
2018-04-27T22:53:02.242Z,79.40
2018-04-27T22:55:30.487Z,79.38
2018-04-27T22:58:08.852Z,79.37
2018-04-27T23:09:14.329Z,79.45
2018-04-27T23:11:41.907Z,79.46
2018-04-27T23:14:16.271Z,79.58
2018-04-27T23:16:45.607Z,79.61
2018-04-27T23:28:21.623Z,79.90
2018-04-27T23:30:49.147Z,79.96
2018-04-27T23:33:16.819Z,80.09
2018-04-27T23:44:52.890Z,80.33
2018-04-27T23:47:20.470Z,80.45
2018-04-27T23:49:48.042Z,80.49
